createdAt,value
2019-04-14T00:02:09.630Z,98369.09
2019-04-14T00:04:44.799Z,98356.38
2019-04-14T00:07:16.638Z,98354.23
2019-04-14T00:09:49.818Z,98352.86
2019-04-14T00:12:23.024Z,98356.41
2019-04-14T00:14:56.009Z,98342.94
2019-04-14T00:17:28.404Z,98350.55
2019-04-14T00:20:00.963Z,98348.06
2019-04-14T00:22:33.645Z,98343.60
2019-04-14T00:25:06.465Z,98343.88
2019-04-14T00:27:38.824Z,98340.90
2019-04-14T00:30:14.344Z,98338.52
2019-04-14T00:32:53.200Z,98336.36
2019-04-14T00:35:40.880Z,98330.06
2019-04-14T00:38:39.060Z,98328.86
2019-04-14T00:41:40.920Z,98319.48
2019-04-14T00:44:31.844Z,98319.47
2019-04-14T00:47:11.446Z,98313.74
2019-04-14T00:49:44.042Z,98308.34
2019-04-14T00:52:16.728Z,98305.93
2019-04-14T00:54:50.030Z,98299.98
2019-04-14T00:57:22.447Z,98300.35
2019-04-14T00:59:55.238Z,98309.65
2019-04-14T01:02:27.535Z,98303.91
2019-04-14T01:05:00.149Z,98311.46
2019-04-14T01:07:32.714Z,98310.31
2019-04-14T01:10:06.041Z,98310.91
2019-04-14T01:12:38.783Z,98313.89
2019-04-14T01:15:11.516Z,98310.00
2019-04-14T01:17:43.895Z,98310.94
2019-04-14T01:20:16.714Z,98309.52
2019-04-14T01:22:48.890Z,98305.89
2019-04-14T01:25:21.531Z,98308.17
2019-04-14T01:27:53.822Z,98302.44
2019-04-14T01:30:26.280Z,98305.65
2019-04-14T01:32:58.890Z,98311.20
2019-04-14T01:35:31.428Z,98308.20
2019-04-14T01:38:03.783Z,98303.36
2019-04-14T01:40:35.960Z,98296.68
2019-04-14T01:43:08.139Z,98296.77
2019-04-14T01:45:40.309Z,98299.41
2019-04-14T01:48:12.736Z,98303.02
2019-04-14T01:51:18.752Z,98307.81
2019-04-14T01:53:59.590Z,98300.38
2019-04-14T01:56:44.963Z,98303.28
2019-04-14T01:59:17.368Z,98296.06
2019-04-14T02:01:50.006Z,98289.92
2019-04-14T02:04:22.417Z,98289.26
2019-04-14T02:06:55.207Z,98286.81
2019-04-14T02:09:27.272Z,98286.42
2019-04-14T02:11:59.496Z,98281.97
2019-04-14T02:14:32.264Z,98277.64
2019-04-14T02:17:05.994Z,98277.15
2019-04-14T02:19:39.167Z,98276.79
2019-04-14T02:22:11.663Z,98277.02
2019-04-14T02:24:43.912Z,98274.12
2019-04-14T02:27:16.682Z,98272.17
2019-04-14T02:29:49.496Z,98278.19
2019-04-14T02:32:49.409Z,98272.63
2019-04-14T02:35:28.209Z,98276.59
2019-04-14T02:38:04.719Z,98266.56
2019-04-14T02:40:36.321Z,98269.38
2019-04-14T02:43:14.585Z,98264.43
2019-04-14T02:45:44.964Z,98267.18
2019-04-14T02:48:31.517Z,98262.47
2019-04-14T02:50:48.101Z,98268.78
2019-04-14T02:56:05.167Z,98266.41
2019-04-14T03:01:07.283Z,98262.93
2019-04-14T03:03:54.369Z,98256.61
2019-04-14T03:06:25.650Z,98250.03
2019-04-14T03:11:38.063Z,98244.70
2019-04-14T03:14:06.324Z,98246.27
2019-04-14T03:20:07.508Z,98231.72
2019-04-14T03:22:53.536Z,98237.95
2019-04-14T03:25:27.746Z,98232.95
2019-04-14T03:28:46.057Z,98223.91
2019-04-14T03:31:46.822Z,98219.94
2019-04-14T03:34:12.938Z,98224.34
2019-04-14T03:37:07.986Z,98227.75
2019-04-14T03:41:33.257Z,98221.89
2019-04-14T03:44:01.515Z,98225.45
2019-04-14T03:46:41.541Z,98235.22
2019-04-14T03:49:19.025Z,98244.98
2019-04-14T03:51:50.285Z,98237.09
2019-04-14T03:54:19.134Z,98233.67
2019-04-14T03:56:58.237Z,98217.88
2019-04-14T03:59:30.289Z,98223.36
2019-04-14T04:02:08.024Z,98220.62
2019-04-14T04:04:40.186Z,98222.30
2019-04-14T04:07:19.235Z,98227.22
2019-04-14T04:09:56.658Z,98222.91
2019-04-14T04:12:31.393Z,98220.77
2019-04-14T04:15:03.959Z,98222.30
2019-04-14T04:18:13.485Z,98222.43
2019-04-14T04:21:01.484Z,98222.91
2019-04-14T04:23:55.409Z,98228.30
2019-04-14T04:26:47.848Z,98231.48
2019-04-14T04:29:30.941Z,98239.34
2019-04-14T04:32:16.458Z,98245.34
2019-04-14T04:35:13.154Z,98246.55
2019-04-14T04:37:58.525Z,98242.53
2019-04-14T04:40:31.654Z,98238.66
2019-04-14T04:43:03.848Z,98242.61
2019-04-14T04:45:36.521Z,98249.38
2019-04-14T04:48:09.059Z,98248.84
2019-04-14T04:50:41.171Z,98248.34
2019-04-14T04:53:13.752Z,98245.47
2019-04-14T04:55:46.097Z,98252.95
2019-04-14T04:58:17.858Z,98250.92
2019-04-14T05:00:52.518Z,98248.66
2019-04-14T05:03:23.351Z,98245.02
2019-04-14T05:06:59.307Z,98243.19
2019-04-14T05:09:51.321Z,98243.55
2019-04-14T05:12:48.061Z,98241.06
2019-04-14T05:15:42.301Z,98237.03
2019-04-14T05:18:20.472Z,98236.49
2019-04-14T05:20:53.370Z,98234.14
2019-04-14T05:23:25.765Z,98238.74
2019-04-14T05:26:00.539Z,98239.98
2019-04-14T05:28:33.181Z,98231.42
2019-04-14T05:31:06.165Z,98232.98
2019-04-14T05:33:38.717Z,98231.31
2019-04-14T05:36:12.766Z,98240.66
2019-04-14T05:38:45.035Z,98246.75
2019-04-14T05:41:18.025Z,98241.14
2019-04-14T05:43:55.133Z,98250.64
2019-04-14T05:46:29.680Z,98253.05
2019-04-14T05:49:02.224Z,98255.39
2019-04-14T05:51:35.012Z,98249.08
2019-04-14T05:54:07.812Z,98245.16
2019-04-14T05:56:40.708Z,98232.97
2019-04-14T05:59:20.374Z,98234.00
2019-04-14T06:01:52.532Z,98232.58
2019-04-14T06:04:24.502Z,98238.52
2019-04-14T06:06:56.523Z,98236.02
2019-04-14T06:09:30.299Z,98241.96
2019-04-14T06:12:02.138Z,98246.42
2019-04-14T06:14:34.206Z,98249.48
2019-04-14T06:17:06.945Z,98244.28
2019-04-14T06:19:40.654Z,98247.77
2019-04-14T06:22:16.137Z,98251.30
2019-04-14T06:24:48.046Z,98252.07
2019-04-14T06:27:21.072Z,98256.09
2019-04-14T06:29:56.105Z,98252.19
2019-04-14T06:32:43.560Z,98259.05
2019-04-14T06:35:34.531Z,98254.80
2019-04-14T06:38:15.937Z,98254.91
2019-04-14T06:40:52.933Z,98251.20
2019-04-14T06:43:25.259Z,98251.30
2019-04-14T06:45:57.128Z,98259.16
2019-04-14T06:48:30.041Z,98256.04
2019-04-14T06:51:01.954Z,98253.44
2019-04-14T06:53:33.966Z,98263.07
2019-04-14T06:56:06.351Z,98251.90
2019-04-14T06:58:39.567Z,98248.89
2019-04-14T07:01:12.447Z,98253.72
2019-04-14T07:03:45.331Z,98243.30
2019-04-14T07:06:17.291Z,98244.03
2019-04-14T07:08:50.732Z,98244.09
2019-04-14T07:11:22.514Z,98240.70
2019-04-14T07:13:54.863Z,98240.39
2019-04-14T07:16:27.301Z,98244.67
2019-04-14T07:18:59.765Z,98241.67
2019-04-14T07:21:31.996Z,98238.03
2019-04-14T07:24:04.473Z,98236.16
2019-04-14T07:26:36.545Z,98250.48
2019-04-14T07:29:08.994Z,98248.53
2019-04-14T07:32:05.841Z,98254.79
2019-04-14T07:35:11.687Z,98252.02
2019-04-14T07:38:02.524Z,98247.05
2019-04-14T07:40:46.813Z,98246.67
2019-04-14T07:43:34.835Z,98248.02
2019-04-14T07:46:15.526Z,98248.94
2019-04-14T07:49:14.987Z,98241.63
2019-04-14T07:52:08.927Z,98239.67
2019-04-14T07:54:51.623Z,98243.51
2019-04-14T07:57:41.259Z,98238.55
2019-04-14T08:00:22.101Z,98235.23
2019-04-14T08:02:59.343Z,98243.30
2019-04-14T08:05:34.664Z,98238.67
2019-04-14T08:08:06.984Z,98237.03
2019-04-14T08:10:39.571Z,98240.84
2019-04-14T08:13:12.671Z,98238.07
2019-04-14T08:15:44.842Z,98234.22
2019-04-14T08:18:17.677Z,98226.52
2019-04-14T08:20:50.137Z,98234.05
2019-04-14T08:23:22.409Z,98231.13
2019-04-14T08:26:00.395Z,98235.10
2019-04-14T08:28:32.876Z,98228.50
2019-04-14T08:31:06.495Z,98231.13
2019-04-14T08:33:39.528Z,98230.16
2019-04-14T08:36:21.174Z,98238.08
2019-04-14T08:38:53.691Z,98233.63
2019-04-14T08:41:40.257Z,98237.28
2019-04-14T08:44:20.413Z,98240.73
2019-04-14T08:47:04.793Z,98235.73
2019-04-14T08:49:50.656Z,98230.80
2019-04-14T08:52:26.154Z,98227.23
2019-04-14T08:55:28.865Z,98227.84
2019-04-14T08:58:18.655Z,98222.30
2019-04-14T09:01:18.435Z,98222.48
2019-04-14T09:04:18.742Z,98216.02
2019-04-14T09:06:59.261Z,98216.59
2019-04-14T09:09:38.502Z,98205.91
2019-04-14T09:12:23.618Z,98209.03
2019-04-14T09:14:57.258Z,98198.00
2019-04-14T09:17:48.186Z,98199.66
2019-04-14T09:20:20.317Z,98186.52
2019-04-14T09:22:52.985Z,98181.25
2019-04-14T09:25:25.453Z,98172.61
2019-04-14T09:27:59.199Z,98177.72
2019-04-14T09:34:32.279Z,98163.02
2019-04-14T09:37:12.085Z,98164.42
2019-04-14T09:39:48.028Z,98162.33
2019-04-14T09:42:20.419Z,98155.05
2019-04-14T09:44:53.413Z,98154.61
2019-04-14T09:47:29.354Z,98150.95
2019-04-14T09:50:01.893Z,98139.45
2019-04-14T09:52:33.790Z,98151.66
2019-04-14T09:55:07.127Z,98133.09
2019-04-14T09:57:40.785Z,98132.78
2019-04-14T10:00:14.646Z,98119.83
2019-04-14T10:02:46.518Z,98116.34
2019-04-14T10:05:18.549Z,98117.55
2019-04-14T10:07:50.494Z,98119.68
2019-04-14T10:10:23.129Z,98120.09
2019-04-14T10:12:56.477Z,98112.97
2019-04-14T10:15:28.717Z,98113.86
2019-04-14T10:18:01.013Z,98111.34
2019-04-14T10:20:33.132Z,98103.20
2019-04-14T10:23:05.468Z,98093.33
2019-04-14T10:25:37.972Z,98095.11
2019-04-14T10:28:10.257Z,98080.72
2019-04-14T10:30:42.332Z,98089.05
2019-04-14T10:33:14.375Z,98090.39
2019-04-14T10:35:47.543Z,98084.80
2019-04-14T10:38:19.981Z,98095.02
2019-04-14T10:40:52.033Z,98088.37
2019-04-14T10:43:24.748Z,98081.34
2019-04-14T10:45:56.879Z,98080.37
2019-04-14T10:48:29.730Z,98080.70
2019-04-14T10:51:02.687Z,98083.66
2019-04-14T10:53:35.413Z,98078.83
2019-04-14T10:56:07.625Z,98073.42
2019-04-14T10:58:39.413Z,98066.16
2019-04-14T11:01:11.304Z,98075.10
2019-04-14T11:03:43.434Z,98067.77
2019-04-14T11:06:42.253Z,98073.16
2019-04-14T11:09:17.188Z,98049.64
2019-04-14T11:11:49.386Z,98056.87
2019-04-14T11:14:22.410Z,98052.02
2019-04-14T11:16:54.355Z,98040.70
2019-04-14T11:19:26.066Z,98032.79
2019-04-14T11:21:58.346Z,98024.83
2019-04-14T11:24:31.260Z,98026.48
2019-04-14T11:27:03.658Z,98017.86
2019-04-14T11:29:35.624Z,98019.13
2019-04-14T11:32:31.956Z,98002.30
2019-04-14T11:35:16.711Z,98001.85
2019-04-14T11:38:02.352Z,97995.91
2019-04-14T11:40:39.619Z,97995.30
2019-04-14T11:43:12.753Z,97990.71
2019-04-14T11:45:44.742Z,98008.53
2019-04-14T11:48:17.195Z,98016.44
2019-04-14T11:50:51.653Z,98027.37
2019-04-14T11:53:23.602Z,98035.02
2019-04-14T11:55:55.515Z,98066.72
2019-04-14T11:58:29.133Z,98039.95
2019-04-14T12:01:20.101Z,98032.86
2019-04-14T12:04:07.307Z,98020.97
2019-04-14T12:07:08.670Z,98030.48
2019-04-14T12:09:53.339Z,98049.37
2019-04-14T12:12:25.634Z,98021.66
2019-04-14T12:14:58.061Z,98041.63
2019-04-14T12:17:32.646Z,98019.02
2019-04-14T12:20:05.025Z,98021.84
2019-04-14T12:22:44.678Z,98016.61
2019-04-14T12:25:17.407Z,98026.12
2019-04-14T12:27:51.173Z,98059.35
2019-04-14T12:30:24.384Z,98028.70
2019-04-14T12:32:56.508Z,98033.39
2019-04-14T12:35:28.670Z,98034.83
2019-04-14T12:38:01.817Z,98072.37
2019-04-14T12:40:34.495Z,98052.58
2019-04-14T13:28:15.354Z,98100.97
2019-04-14T13:31:06.327Z,98081.23
2019-04-14T13:33:45.453Z,98076.55
2019-04-14T13:36:17.887Z,98067.64
2019-04-14T13:38:51.016Z,98057.66
2019-04-14T13:41:24.362Z,98049.55
2019-04-14T13:44:01.325Z,98036.67
2019-04-14T13:46:35.200Z,98035.50
2019-04-14T13:49:14.757Z,98022.30
2019-04-14T13:51:48.008Z,98022.11
2019-04-14T13:54:28.154Z,98017.39
2019-04-14T13:57:00.150Z,98017.02
2019-04-14T13:59:32.329Z,98018.29
2019-04-14T14:02:04.372Z,98007.81
2019-04-14T14:04:36.076Z,98004.29
2019-04-14T14:07:08.440Z,98005.69
2019-04-14T14:09:40.449Z,98009.17
2019-04-14T14:12:26.862Z,98007.22
2019-04-14T14:15:05.442Z,98013.09
2019-04-14T14:17:47.569Z,98022.42
2019-04-14T14:20:25.564Z,98019.75
2019-04-14T14:23:22.097Z,98015.49
2019-04-14T14:25:58.428Z,98014.22
2019-04-14T14:28:29.953Z,98025.88
2019-04-14T14:31:02.801Z,98037.02
2019-04-14T14:33:34.551Z,98046.89
2019-04-14T14:36:06.431Z,98044.98
2019-04-14T14:38:38.079Z,98037.02
2019-04-14T14:41:13.447Z,98038.48
2019-04-14T14:43:45.529Z,98043.56
2019-04-14T14:46:42.228Z,98047.17
2019-04-14T14:49:44.859Z,98049.19
2019-04-14T14:52:20.711Z,98044.41
2019-04-14T14:54:52.506Z,98050.19
2019-04-14T14:57:32.006Z,98048.53
2019-04-14T15:00:04.509Z,98041.27
2019-04-14T15:02:39.571Z,98039.14
2019-04-14T15:05:12.001Z,98035.63
2019-04-14T15:07:52.220Z,98032.16
2019-04-14T15:10:24.272Z,98021.01
2019-04-14T15:12:59.940Z,98020.98
2019-04-14T15:15:31.994Z,98018.03
2019-04-14T15:18:09.985Z,98011.05
2019-04-14T15:20:41.733Z,98015.70
2019-04-14T15:23:25.085Z,98013.66
2019-04-14T15:25:53.726Z,98005.99
2019-04-14T15:28:34.285Z,98014.41
2019-04-14T15:31:06.251Z,98014.02
2019-04-14T15:33:44.030Z,98028.14
2019-04-14T15:36:17.149Z,98020.55
2019-04-14T15:38:49.583Z,98026.37
2019-04-14T15:41:22.211Z,98034.18
2019-04-14T15:44:01.470Z,98031.23
2019-04-14T15:46:35.861Z,98033.95
2019-04-14T15:49:15.858Z,98030.75
2019-04-14T15:51:48.533Z,98029.22
2019-04-14T15:54:25.387Z,98029.78
2019-04-14T15:57:22.231Z,98030.62
2019-04-14T16:00:19.454Z,98035.59
2019-04-14T16:03:16.857Z,98035.20
2019-04-14T16:06:00.076Z,98034.24
2019-04-14T16:08:41.270Z,98035.30
2019-04-14T16:11:18.591Z,98035.23
2019-04-14T16:14:05.780Z,98032.59
2019-04-14T16:17:10.119Z,98028.41
2019-04-14T16:19:48.675Z,98028.41
2019-04-14T16:22:20.443Z,98031.34
2019-04-14T16:24:53.181Z,98036.10
2019-04-14T16:27:49.381Z,98040.25
2019-04-14T16:30:37.502Z,98040.91
2019-04-14T16:33:43.149Z,98051.13
2019-04-14T16:36:15.229Z,98045.62
2019-04-14T16:38:47.253Z,98050.24
2019-04-14T16:41:20.289Z,98054.39
2019-04-14T16:43:52.971Z,98058.17
2019-04-14T16:46:25.085Z,98059.02
2019-04-14T16:48:57.523Z,98057.47
2019-04-14T16:51:35.072Z,98059.25
2019-04-14T16:54:17.906Z,98057.62
2019-04-14T16:56:59.733Z,98052.77
2019-04-14T16:59:32.666Z,98054.34
2019-04-14T17:02:10.905Z,98063.48
2019-04-14T17:04:38.931Z,98068.61
2019-04-14T17:07:11.509Z,98071.93
2019-04-14T17:09:43.363Z,98069.92
2019-04-14T17:12:15.641Z,98069.92
2019-04-14T17:15:08.213Z,98072.91
2019-04-14T17:17:48.200Z,98074.81
2019-04-14T17:20:33.489Z,98089.64
2019-04-14T17:23:20.055Z,98114.92
2019-04-14T17:26:11.339Z,98115.01
2019-04-14T17:29:03.322Z,98099.82
2019-04-14T17:31:56.880Z,98096.03
2019-04-14T17:34:46.724Z,98093.07
2019-04-14T17:37:40.492Z,98094.27
2019-04-14T17:40:42.521Z,98096.77
2019-04-14T17:43:28.578Z,98098.80
2019-04-14T17:46:19.095Z,98095.48
2019-04-14T17:49:09.701Z,98108.64
2019-04-14T17:52:01.172Z,98113.63
2019-04-14T17:54:53.670Z,98114.70
2019-04-14T17:57:54.022Z,98123.00
2019-04-14T18:00:44.394Z,98126.80
2019-04-14T18:03:40.521Z,98127.27
2019-04-14T18:06:49.137Z,98130.34
2019-04-14T18:09:29.651Z,98129.48
2019-04-14T18:12:09.093Z,98131.65
2019-04-14T18:14:59.167Z,98128.18
2019-04-14T18:17:34.981Z,98136.13
2019-04-14T18:20:14.627Z,98151.73
2019-04-14T18:22:51.392Z,98154.09
2019-04-14T18:25:21.175Z,98161.65
2019-04-14T18:28:23.740Z,98163.03
2019-04-14T18:31:00.869Z,98169.08
2019-04-14T18:33:58.277Z,98177.30
2019-04-14T18:36:46.940Z,98180.47
2019-04-14T18:39:37.001Z,98183.91
2019-04-14T18:42:30.118Z,98192.98
2019-04-14T18:45:17.581Z,98197.04
2019-04-14T18:47:57.988Z,98200.20
2019-04-14T18:50:52.096Z,98202.53
2019-04-14T18:53:42.364Z,98208.20
2019-04-14T18:56:42.680Z,98214.70
2019-04-14T18:59:39.339Z,98214.59
2019-04-14T19:02:14.370Z,98215.66
2019-04-14T19:04:48.204Z,98221.36
2019-04-14T19:07:20.299Z,98223.98
2019-04-14T19:09:53.769Z,98223.25
2019-04-14T19:12:56.496Z,98227.08
2019-04-14T19:15:36.621Z,98232.39
2019-04-14T19:18:20.901Z,98232.95
2019-04-14T19:20:57.403Z,98233.48
2019-04-14T19:23:29.869Z,98230.72
2019-04-14T19:26:02.763Z,98235.75
2019-04-14T19:28:35.335Z,98238.19
2019-04-14T19:31:07.644Z,98249.59
2019-04-14T19:33:39.957Z,98250.72
2019-04-14T19:36:13.425Z,98257.13
2019-04-14T19:38:46.270Z,98263.01
2019-04-14T19:41:19.088Z,98265.00
2019-04-14T19:43:54.633Z,98267.09
2019-04-14T19:46:27.507Z,98271.17
2019-04-14T19:49:00.472Z,98267.78
2019-04-14T19:51:33.511Z,98275.80
2019-04-14T19:54:05.785Z,98272.47
2019-04-14T19:56:38.621Z,98267.84
2019-04-14T19:59:11.088Z,98272.30
2019-04-14T20:01:43.680Z,98270.55
2019-04-14T20:04:16.347Z,98268.05
2019-04-14T20:06:49.102Z,98275.10
2019-04-14T20:09:21.518Z,98277.59
2019-04-14T20:11:54.715Z,98272.33
2019-04-14T20:14:27.367Z,98266.69
2019-04-14T20:17:24.590Z,98269.11
2019-04-14T20:20:18.612Z,98267.80
2019-04-14T20:23:09.427Z,98268.81
2019-04-14T20:26:09.797Z,98268.91
2019-04-14T20:28:47.108Z,98272.44
2019-04-14T20:31:50.730Z,98278.17
2019-04-14T20:34:23.817Z,98280.22
2019-04-14T20:36:56.438Z,98285.77
2019-04-14T20:39:31.711Z,98291.52
2019-04-14T20:42:04.172Z,98293.63
2019-04-14T20:44:36.827Z,98299.83
2019-04-14T20:47:11.125Z,98298.73
2019-04-14T20:49:43.928Z,98295.57
2019-04-14T20:52:16.178Z,98290.56
2019-04-14T20:54:49.486Z,98288.89
2019-04-14T20:57:21.782Z,98292.97
2019-04-14T20:59:55.134Z,98298.33
2019-04-14T21:02:52.623Z,98306.20
2019-04-14T21:05:45.318Z,98308.14
2019-04-14T21:08:28.883Z,98306.27
2019-04-14T21:11:11.748Z,98311.81
2019-04-14T21:14:05.771Z,98316.91
2019-04-14T21:17:01.044Z,98318.07
2019-04-14T21:20:01.642Z,98317.06
2019-04-14T21:22:55.614Z,98319.81
2019-04-14T21:25:34.967Z,98318.72
2019-04-14T21:28:24.365Z,98316.45
2019-04-14T21:31:07.382Z,98325.16
2019-04-14T21:34:21.677Z,98326.36
2019-04-14T21:37:08.820Z,98330.98
2019-04-14T21:40:14.521Z,98335.66
2019-04-14T21:42:46.642Z,98342.00
2019-04-14T21:45:18.848Z,98342.19
2019-04-14T21:47:50.664Z,98336.81
2019-04-14T21:50:22.925Z,98340.59
2019-04-14T21:52:54.768Z,98342.98
2019-04-14T21:55:27.130Z,98348.62
2019-04-14T21:58:20.640Z,98350.21
2019-04-14T22:01:52.111Z,98344.05
2019-04-14T22:04:45.137Z,98349.56
2019-04-14T22:07:33.698Z,98355.23
2019-04-14T22:10:18.251Z,98347.27
2019-04-14T22:12:50.175Z,98350.06
2019-04-14T22:15:22.115Z,98351.00
2019-04-14T22:17:55.449Z,98356.93
2019-04-14T22:20:27.408Z,98349.52
2019-04-14T22:23:01.274Z,98356.13
2019-04-14T22:25:36.131Z,98360.20
2019-04-14T22:28:08.126Z,98364.00
2019-04-14T22:30:40.109Z,98363.16
2019-04-14T22:33:12.338Z,98367.69
2019-04-14T22:35:44.498Z,98369.88
2019-04-14T22:38:16.425Z,98369.04
2019-04-14T22:40:48.376Z,98369.04
2019-04-14T22:43:20.431Z,98365.80
2019-04-14T22:45:52.695Z,98374.88
2019-04-14T22:48:24.583Z,98378.50
2019-04-14T22:50:57.257Z,98377.70
2019-04-14T22:53:31.651Z,98371.03
2019-04-14T22:56:03.540Z,98382.99
2019-04-14T22:58:35.743Z,98382.89
2019-04-14T23:01:15.411Z,98388.61
2019-04-14T23:04:12.696Z,98389.33
2019-04-14T23:07:12.453Z,98382.94
2019-04-14T23:09:52.470Z,98388.58
2019-04-14T23:12:36.625Z,98391.16
2019-04-14T23:15:26.904Z,98400.42
2019-04-14T23:18:09.857Z,98400.52
2019-04-14T23:20:52.346Z,98402.27
2019-04-14T23:23:39.853Z,98400.56
2019-04-14T23:26:11.933Z,98413.77
2019-04-14T23:28:43.770Z,98409.44
2019-04-14T23:31:15.553Z,98410.68
2019-04-14T23:33:47.270Z,98412.18
2019-04-14T23:36:19.235Z,98411.70
2019-04-14T23:38:51.234Z,98409.45
2019-04-14T23:41:22.984Z,98407.59
2019-04-14T23:43:54.634Z,98398.88
2019-04-14T23:46:26.420Z,98401.66
2019-04-14T23:48:58.165Z,98407.30
2019-04-14T23:51:30.258Z,98404.52
2019-04-14T23:54:01.938Z,98406.41
2019-04-14T23:56:33.983Z,98406.61
2019-04-14T23:59:09.189Z,98407.46
